Time,TemperatureF,DewpointF,PressureIn,WindDirection,WindDirectionDegrees,WindSpeedMPH,WindSpeedGustMPH,Humidity,HourlyPrecipIn,Conditions,Clouds,dailyrainin,SoftwareType,DateUTC
2013-01-23 00:03:00,12.7,0.4,30.31,West,270,2.3,2.4,57,0.00,BKN,,0.00,WeatherDisplay:10.37,2013-01-23 06:03:00,
2013-01-23 00:08:00,12.7,0.4,30.31,West,270,2.3,2.4,57,0.00,BKN,,0.00,WeatherDisplay:10.37,2013-01-23 06:08:00,
2013-01-23 00:13:00,12.6,0.2,30.31,South,180,2.3,2.3,57,0.00,BKN,,0.00,WeatherDisplay:10.37,2013-01-23 06:13:00,
2013-01-23 00:18:00,12.6,0.2,30.31,WNW,292,3.5,3.5,57,0.00,BKN,,0.00,WeatherDisplay:10.37,2013-01-23 06:18:00,
2013-01-23 00:23:00,12.4,0.0,30.31,West,270,5.8,5.8,57,0.00,BKN,,0.00,WeatherDisplay:10.37,2013-01-23 06:23:00,
2013-01-23 00:28:00,12.4,0.0,30.31,SW,225,2.3,2.3,57,0.00,BKN,,0.00,WeatherDisplay:10.37,2013-01-23 06:28:00,
2013-01-23 00:33:00,12.2,-0.1,30.31,WSW,248,2.8,2.8,57,0.00,BKN,,0.00,WeatherDisplay:10.37,2013-01-23 06:33:00,
2013-01-23 00:38:00,12.4,0.0,30.31,NW,315,5.8,5.8,57,0.00,BKN,,0.00,WeatherDisplay:10.37,2013-01-23 06:38:00,
2013-01-23 00:43:00,12.0,-0.3,30.30,SW,225,2.3,2.3,57,0.00,BKN,,0.00,WeatherDisplay:10.37,2013-01-23 06:43:00,
2013-01-23 00:48:00,11.8,-0.5,30.30,NW,315,3.5,3.5,57,0.00,BKN,,0.00,WeatherDisplay:10.37,2013-01-23 06:48:00,
2013-01-23 00:53:00,11.7,-0.7,30.30,SW,225,2.3,2.3,57,0.00,BKN,,0.00,WeatherDisplay:10.37,2013-01-23 06:53:00,
2013-01-23 00:58:00,11.7,-0.7,30.30,West,270,2.3,2.3,57,0.00,BKN,,0.00,WeatherDisplay:10.37,2013-01-23 06:58:00,
2013-01-23 01:03:00,11.3,-1.0,30.30,WSW,248,2.3,2.3,57,0.00,BKN,,0.00,WeatherDisplay:10.37,2013-01-23 07:03:00,
2013-01-23 01:08:00,11.3,-1.0,30.30,SW,225,2.3,2.3,57,0.00,BKN,,0.00,WeatherDisplay:10.37,2013-01-23 07:08:00,
2013-01-23 01:13:00,11.3,-1.0,30.30,West,270,3.5,3.5,57,0.00,BKN,,0.00,WeatherDisplay:10.37,2013-01-23 07:13:00,
2013-01-23 01:18:00,11.3,-1.0,30.30,SW,225,1.2,1.3,57,0.00,BKN,,0.00,WeatherDisplay:10.37,2013-01-23 07:18:00,
2013-01-23 01:23:00,11.1,-0.8,30.29,SW,225,2.3,2.3,58,0.00,BKN,,0.00,WeatherDisplay:10.37,2013-01-23 07:23:00,
2013-01-23 01:28:00,11.1,-0.8,30.29,WSW,248,2.3,2.3,58,0.00,BKN,,0.00,WeatherDisplay:10.37,2013-01-23 07:28:00,
2013-01-23 01:33:00,11.3,-0.6,30.29,West,270,2.6,2.6,58,0.00,BKN,,0.00,WeatherDisplay:10.37,2013-01-23 07:33:00,
2013-01-23 01:38:00,11.7,-0.3,30.29,South,180,2.3,2.3,58,0.00,BKN,,0.00,WeatherDisplay:10.37,2013-01-23 07:38:00,
2013-01-23 01:43:00,11.7,-0.3,30.29,WNW,292,3.5,3.5,58,0.00,BKN,,0.00,WeatherDisplay:10.37,2013-01-23 07:43:00,
2013-01-23 01:48:00,12.0,0.1,30.29,WSW,248,3.5,3.5,58,0.00,BKN,,0.00,WeatherDisplay:10.37,2013-01-23 07:48:00,
2013-01-23 01:53:00,12.0,0.1,30.29,WSW,248,2.4,2.4,58,0.00,BKN,,0.00,WeatherDisplay:10.37,2013-01-23 07:53:00,
2013-01-23 01:58:00,12.0,0.1,30.29,WNW,292,1.2,1.6,58,0.00,BKN,,0.00,WeatherDisplay:10.37,2013-01-23 07:58:00,
2013-01-23 02:03:00,12.0,0.1,30.29,West,270,2.3,2.3,58,0.00,BKN,,0.00,WeatherDisplay:10.37,2013-01-23 08:03:00,
2013-01-23 02:08:00,12.4,0.4,30.29,WNW,292,3.5,3.5,58,0.00,BKN,,0.00,WeatherDisplay:10.37,2013-01-23 08:08:00,
2013-01-23 02:13:00,12.4,0.4,30.29,SW,225,2.3,2.3,58,0.00,BKN,,0.00,WeatherDisplay:10.37,2013-01-23 08:13:00,
2013-01-23 02:18:00,12.4,0.4,30.29,SW,225,1.6,2.0,58,0.00,BKN,,0.00,WeatherDisplay:10.37,2013-01-23 08:18:00,
2013-01-23 02:23:00,12.4,0.4,30.29,West,270,2.3,2.3,58,0.00,BKN,,0.00,WeatherDisplay:10.37,2013-01-23 08:23:00,
2013-01-23 02:28:00,12.4,0.4,30.29,WSW,248,0.0,1.2,58,0.00,BKN,,0.00,WeatherDisplay:10.37,2013-01-23 08:28:00,
2013-01-23 02:33:00,12.6,0.6,30.29,West,270,0.0,0.7,58,0.00,BKN,,0.00,WeatherDisplay:10.37,2013-01-23 08:33:00,
2013-01-23 02:38:00,12.7,0.7,30.29,WSW,248,0.0,0.3,58,0.00,BKN,,0.00,WeatherDisplay:10.37,2013-01-23 08:38:00,
2013-01-23 02:43:00,12.7,0.7,30.29,West,270,0.0,0.2,58,0.00,BKN,,0.00,WeatherDisplay:10.37,2013-01-23 08:43:00,
2013-01-23 02:48:00,12.7,0.7,30.29,West,270,1.2,1.2,58,0.00,BKN,,0.00,WeatherDisplay:10.37,2013-01-23 08:48:00,
2013-01-23 02:53:00,12.7,0.7,30.29,West,270,2.3,2.3,58,0.00,BKN,,0.00,WeatherDisplay:10.37,2013-01-23 08:53:00,
2013-01-23 02:58:00,13.1,1.1,30.29,West,270,5.8,5.8,58,0.00,BKN,,0.00,WeatherDisplay:10.37,2013-01-23 08:58:00,
2013-01-23 03:03:00,13.1,1.1,30.28,WNW,292,3.5,3.5,58,0.00,BKN,,0.00,WeatherDisplay:10.37,2013-01-23 09:03:00,
2013-01-23 03:20:00,12.9,0.9,30.28,WNW,301,2.0,5.0,58,0.00,BKN,,0.00,WeatherDisplay:10.37,2013-01-23 09:20:00,
2013-01-23 03:25:00,13.1,1.1,30.27,WNW,292,3.5,3.5,58,0.00,BKN,,0.00,WeatherDisplay:10.37,2013-01-23 09:25:00,
2013-01-23 03:30:00,13.1,1.1,30.27,West,271,2.0,3.0,58,0.00,BKN,,0.00,WeatherDisplay:10.37,2013-01-23 09:30:00,
2013-01-23 03:35:00,13.1,1.1,30.27,WSW,248,3.9,3.9,58,0.00,BKN,,0.00,WeatherDisplay:10.37,2013-01-23 09:35:00,
2013-01-23 03:40:00,13.1,0.7,30.27,West,262,2.0,4.0,57,0.00,BKN,,0.00,WeatherDisplay:10.37,2013-01-23 09:40:00,
2013-01-23 03:45:00,13.1,0.7,30.28,West,270,2.3,2.4,57,0.00,BKN,,0.00,WeatherDisplay:10.37,2013-01-23 09:45:00,
2013-01-23 03:50:00,13.1,1.1,30.28,West,266,2.0,3.0,58,0.00,BKN,,0.00,WeatherDisplay:10.37,2013-01-23 09:50:00,
2013-01-23 03:55:00,13.5,1.4,30.28,NNE,22,2.3,2.3,58,0.00,BKN,,0.00,WeatherDisplay:10.37,2013-01-23 09:55:00,
2013-01-23 04:00:00,13.3,0.9,30.28,WSW,248,3.5,3.5,57,0.00,BKN,,0.00,WeatherDisplay:10.37,2013-01-23 10:00:00,
2013-01-23 04:05:00,13.3,1.2,30.26,WSW,248,3.5,3.5,58,0.00,BKN,,0.00,WeatherDisplay:10.37,2013-01-23 10:05:00,
2013-01-23 04:10:00,13.3,1.2,30.26,West,260,1.0,3.0,58,0.00,BKN,,0.00,WeatherDisplay:10.37,2013-01-23 10:10:00,
2013-01-23 04:15:00,13.3,1.2,30.26,WSW,248,4.6,4.6,58,0.00,BKN,,0.00,WeatherDisplay:10.37,2013-01-23 10:15:00,
2013-01-23 04:20:00,13.3,1.2,30.26,WSW,248,2.3,2.3,58,0.00,BKN,,0.00,WeatherDisplay:10.37,2013-01-23 10:20:00,
2013-01-23 04:25:00,13.5,1.4,30.27,West,270,4.6,4.6,58,0.00,BKN,,0.00,WeatherDisplay:10.37,2013-01-23 10:25:00,
2013-01-23 04:30:00,13.5,1.4,30.27,West,277,3.0,6.0,58,0.00,BKN,,0.00,WeatherDisplay:10.37,2013-01-23 10:30:00,
2013-01-23 04:35:00,13.5,1.4,30.27,WSW,248,3.5,3.5,58,0.00,BKN,,0.00,WeatherDisplay:10.37,2013-01-23 10:35:00,
2013-01-23 04:40:00,13.5,1.4,30.27,WNW,292,4.6,4.6,58,0.00,BKN,,0.00,WeatherDisplay:10.37,2013-01-23 10:40:00,
2013-01-23 04:45:00,13.5,1.4,30.27,WSW,248,3.5,3.5,58,0.00,BKN,,0.00,WeatherDisplay:10.37,2013-01-23 10:45:00,
2013-01-23 04:50:00,13.5,1.4,30.27,WNW,292,4.6,4.6,58,0.00,BKN,,0.00,WeatherDisplay:10.37,2013-01-23 10:50:00,
2013-01-23 04:55:00,13.5,1.4,30.27,West,270,4.6,4.6,58,0.00,BKN,,0.00,WeatherDisplay:10.37,2013-01-23 10:55:00,
2013-01-23 05:00:00,13.5,1.4,30.27,WNW,292,3.5,3.5,58,0.00,BKN,,0.00,WeatherDisplay:10.37,2013-01-23 11:00:00,
2013-01-23 05:05:00,13.5,1.8,30.27,SSE,158,4.7,4.7,59,0.00,BKN,,0.00,WeatherDisplay:10.37,2013-01-23 11:05:00,
2013-01-23 05:10:00,13.8,2.1,30.27,SSE,158,3.5,3.5,59,0.00,BKN,,0.00,WeatherDisplay:10.37,2013-01-23 11:10:00,
2013-01-23 05:15:00,13.8,2.1,30.27,West,270,1.2,1.8,59,0.00,BKN,,0.00,WeatherDisplay:10.37,2013-01-23 11:15:00,
2013-01-23 05:20:00,13.8,2.1,30.27,SSW,202,2.3,2.3,59,0.00,BKN,,0.00,WeatherDisplay:10.37,2013-01-23 11:20:00,
2013-01-23 05:25:00,13.8,2.1,30.26,WSW,248,5.8,5.8,59,0.00,BKN,,0.00,WeatherDisplay:10.37,2013-01-23 11:25:00,
2013-01-23 05:30:00,13.5,1.8,30.26,ENE,68,0.0,2.0,59,0.00,BKN,,0.00,WeatherDisplay:10.37,2013-01-23 11:30:00,
2013-01-23 05:35:00,13.8,2.1,30.26,West,270,4.6,4.6,59,0.00,BKN,,0.00,WeatherDisplay:10.37,2013-01-23 11:35:00,
2013-01-23 05:40:00,13.5,1.8,30.26,WSW,248,1.2,2.3,59,0.00,BKN,,0.00,WeatherDisplay:10.37,2013-01-23 11:40:00,
2013-01-23 05:45:00,13.8,2.1,30.25,WSW,248,4.6,4.6,59,0.00,BKN,,0.00,WeatherDisplay:10.37,2013-01-23 11:45:00,
2013-01-23 05:50:00,13.8,2.1,30.25,SW,225,3.5,3.5,59,0.00,BKN,,0.00,WeatherDisplay:10.37,2013-01-23 11:50:00,
2013-01-23 05:55:00,13.8,2.1,30.25,West,270,3.5,3.5,59,0.00,BKN,,0.00,WeatherDisplay:10.37,2013-01-23 11:55:00,
2013-01-23 06:00:00,13.8,2.1,30.25,WNW,292,5.8,5.8,59,0.00,BKN,,0.00,WeatherDisplay:10.37,2013-01-23 12:00:00,
2013-01-23 06:05:00,13.8,2.1,30.25,WSW,248,4.6,4.6,59,0.00,OVC,,0.00,WeatherDisplay:10.37,2013-01-23 12:05:00,
2013-01-23 06:10:00,13.8,2.1,30.25,West,270,4.6,4.6,59,0.00,OVC,,0.00,WeatherDisplay:10.37,2013-01-23 12:10:00,
2013-01-23 06:15:00,13.6,1.9,30.25,WSW,248,3.5,3.5,59,0.00,OVC,,0.00,WeatherDisplay:10.37,2013-01-23 12:15:00,
2013-01-23 06:20:00,13.8,2.5,30.25,SSE,158,2.3,2.3,60,0.00,OVC,,0.00,WeatherDisplay:10.37,2013-01-23 12:20:00,
2013-01-23 06:25:00,13.8,2.1,30.25,WSW,248,4.6,4.6,59,0.00,OVC,,0.00,WeatherDisplay:10.37,2013-01-23 12:25:00,
2013-01-23 06:30:00,13.8,2.1,30.25,SSE,158,2.3,2.3,59,0.00,OVC,,0.00,WeatherDisplay:10.37,2013-01-23 12:30:00,
2013-01-23 06:35:00,13.8,2.5,30.25,SW,225,1.2,1.6,60,0.00,OVC,,0.00,WeatherDisplay:10.37,2013-01-23 12:35:00,
2013-01-23 06:40:00,13.8,2.5,30.25,SW,225,2.6,2.6,60,0.00,OVC,,0.00,WeatherDisplay:10.37,2013-01-23 12:40:00,
2013-01-23 06:45:00,13.8,2.5,30.24,SW,225,2.4,2.4,60,0.00,OVC,,0.00,WeatherDisplay:10.37,2013-01-23 12:45:00,
2013-01-23 06:50:00,13.8,2.5,30.24,WSW,248,1.2,1.7,60,0.00,OVC,,0.00,WeatherDisplay:10.37,2013-01-23 12:50:00,
2013-01-23 06:55:00,13.8,2.5,30.24,SSW,202,3.5,3.5,60,0.00,OVC,,0.00,WeatherDisplay:10.37,2013-01-23 12:55:00,
2013-01-23 07:00:00,14.2,2.8,30.24,SSW,202,5.8,5.8,60,0.00,OVC,,0.00,WeatherDisplay:10.37,2013-01-23 13:00:00,
2013-01-23 07:05:00,14.0,2.7,30.26,WSW,248,4.6,4.6,60,0.00,OVC,,0.00,WeatherDisplay:10.37,2013-01-23 13:05:00,
2013-01-23 07:10:00,14.0,2.7,30.26,SW,225,4.6,4.6,60,0.00,OVC,,0.00,WeatherDisplay:10.37,2013-01-23 13:10:00,
2013-01-23 07:15:00,14.2,2.8,30.26,SW,225,2.3,2.3,60,0.00,OVC,,0.00,WeatherDisplay:10.37,2013-01-23 13:15:00,
2013-01-23 07:20:00,14.2,2.8,30.26,West,270,5.9,5.9,60,0.00,OVC,,0.00,WeatherDisplay:10.37,2013-01-23 13:20:00,
2013-01-23 07:25:00,14.5,3.2,30.25,SW,225,3.5,3.5,60,0.00,OVC,,0.00,WeatherDisplay:10.37,2013-01-23 13:25:00,
2013-01-23 07:30:00,14.5,3.2,30.25,SW,225,5.8,5.8,60,0.00,OVC,,0.00,WeatherDisplay:10.37,2013-01-23 13:30:00,
2013-01-23 07:35:00,14.5,3.2,30.25,WSW,248,3.6,3.6,60,0.00,OVC,,0.00,WeatherDisplay:10.37,2013-01-23 13:35:00,
2013-01-23 07:40:00,14.5,3.2,30.25,West,270,1.2,2.5,60,0.00,OVC,,0.00,WeatherDisplay:10.37,2013-01-23 13:40:00,
2013-01-23 07:45:00,14.5,3.2,30.24,WSW,248,5.8,5.8,60,0.00,OVC,,0.00,WeatherDisplay:10.37,2013-01-23 13:45:00,
2013-01-23 07:50:00,14.7,3.3,30.24,West,270,5.8,5.8,60,0.00,OVC,,0.00,WeatherDisplay:10.37,2013-01-23 13:50:00,
2013-01-23 07:55:00,14.9,3.5,30.24,West,270,2.3,2.9,60,0.00,OVC,,0.00,WeatherDisplay:10.37,2013-01-23 13:55:00,
2013-01-23 08:00:00,14.9,3.5,30.24,SW,225,2.6,2.6,60,0.00,OVC,,0.00,WeatherDisplay:10.37,2013-01-23 14:00:00,
2013-01-23 08:05:00,15.3,3.8,30.25,WNW,292,3.5,3.5,60,0.00,OVC,,0.00,WeatherDisplay:10.37,2013-01-23 14:05:00,
2013-01-23 08:10:00,15.3,3.8,30.25,SSE,158,2.3,2.4,60,0.00,OVC,,0.00,WeatherDisplay:10.37,2013-01-23 14:10:00,
2013-01-23 08:15:00,15.3,3.8,30.25,South,180,8.1,8.1,60,0.00,OVC,,0.00,WeatherDisplay:10.37,2013-01-23 14:15:00,
2013-01-23 08:20:00,15.3,3.8,30.25,SSE,158,3.5,3.5,60,0.00,OVC,,0.00,WeatherDisplay:10.37,2013-01-23 14:20:00,
2013-01-23 08:25:00,15.3,3.8,30.26,SSW,202,2.3,2.4,60,0.00,OVC,,0.00,WeatherDisplay:10.37,2013-01-23 14:25:00,
2013-01-23 08:30:00,15.4,4.0,30.26,WSW,248,2.6,2.6,60,0.00,OVC,,0.00,WeatherDisplay:10.37,2013-01-23 14:30:00,
2013-01-23 08:35:00,15.6,4.2,30.26,South,180,5.8,5.8,60,0.00,OVC,,0.00,WeatherDisplay:10.37,2013-01-23 14:35:00,
2013-01-23 08:40:00,15.6,3.8,30.26,South,180,2.3,4.3,59,0.00,OVC,,0.00,WeatherDisplay:10.37,2013-01-23 14:40:00,
2013-01-23 08:45:00,16.0,4.2,30.29,WSW,248,4.6,4.6,59,0.00,OVC,,0.00,WeatherDisplay:10.37,2013-01-23 14:45:00,
2013-01-23 08:50:00,16.0,4.2,30.29,SW,225,3.5,3.5,59,0.00,OVC,,0.00,WeatherDisplay:10.37,2013-01-23 14:50:00,
2013-01-23 08:55:00,16.0,4.2,30.29,WNW,292,5.8,5.8,59,0.00,OVC,,0.00,WeatherDisplay:10.37,2013-01-23 14:55:00,
2013-01-23 09:00:00,16.3,4.1,30.29,SSE,158,8.1,8.1,58,0.00,OVC,,0.00,WeatherDisplay:10.37,2013-01-23 15:00:00,
2013-01-23 09:05:00,16.0,3.8,30.30,WSW,248,7.2,7.2,58,0.00,OVC,,0.00,WeatherDisplay:10.37,2013-01-23 15:05:00,
2013-01-23 09:10:00,16.2,4.0,30.30,SW,225,7.2,7.2,58,0.00,OVC,,0.00,WeatherDisplay:10.37,2013-01-23 15:10:00,
2013-01-23 09:15:00,16.3,4.1,30.30,SE,135,4.6,4.6,58,0.00,OVC,,0.00,WeatherDisplay:10.37,2013-01-23 15:15:00,
2013-01-23 09:20:00,16.7,4.5,30.30,SSE,158,2.3,3.6,58,0.00,OVC,,0.00,WeatherDisplay:10.37,2013-01-23 15:20:00,
2013-01-23 09:25:00,16.7,4.5,30.31,West,270,5.8,5.8,58,0.00,OVC,,0.00,WeatherDisplay:10.37,2013-01-23 15:25:00,
2013-01-23 09:30:00,16.7,4.5,30.31,West,270,4.6,4.6,58,0.00,OVC,,0.00,WeatherDisplay:10.37,2013-01-23 15:30:00,
2013-01-23 09:35:00,17.1,4.4,30.31,SW,225,6.9,6.9,57,0.00,OVC,,0.00,WeatherDisplay:10.37,2013-01-23 15:35:00,
2013-01-23 09:40:00,17.1,4.4,30.31,SW,225,7.4,7.4,57,0.00,OVC,,0.00,WeatherDisplay:10.37,2013-01-23 15:40:00,
2013-01-23 09:45:00,17.1,4.4,30.32,WSW,248,6.1,6.1,57,0.00,OVC,,0.00,WeatherDisplay:10.37,2013-01-23 15:45:00,
2013-01-23 09:50:00,17.4,4.8,30.32,SE,135,4.6,4.6,57,0.00,OVC,,0.00,WeatherDisplay:10.37,2013-01-23 15:50:00,
2013-01-23 09:55:00,17.1,4.4,30.32,SW,225,5.8,5.8,57,0.00,OVC,,0.00,WeatherDisplay:10.37,2013-01-23 15:55:00,
2013-01-23 10:00:00,17.4,4.8,30.32,SSW,202,5.8,5.8,57,0.00,OVC,,0.00,WeatherDisplay:10.37,2013-01-23 16:00:00,
2013-01-23 10:05:00,17.4,4.8,30.32,SW,225,5.8,5.8,57,0.00,OVC,,0.00,WeatherDisplay:10.37,2013-01-23 16:05:00,
2013-01-23 10:10:00,17.2,4.6,30.32,West,270,3.5,3.5,57,0.00,OVC,,0.00,WeatherDisplay:10.37,2013-01-23 16:10:00,
2013-01-23 10:15:00,17.4,4.8,30.32,South,180,5.8,5.8,57,0.00,OVC,,0.00,WeatherDisplay:10.37,2013-01-23 16:15:00,
2013-01-23 10:20:00,17.4,4.8,30.32,WSW,248,3.5,3.5,57,0.00,OVC,,0.00,WeatherDisplay:10.37,2013-01-23 16:20:00,
2013-01-23 10:25:00,17.4,4.8,30.31,NNE,22,5.8,5.8,57,0.00,OVC,,0.00,WeatherDisplay:10.37,2013-01-23 16:25:00,
2013-01-23 10:30:00,17.6,4.9,30.31,SE,135,4.8,4.8,57,0.00,OVC,,0.00,WeatherDisplay:10.37,2013-01-23 16:30:00,
2013-01-23 10:35:00,17.8,5.1,30.31,SW,225,5.8,5.8,57,0.00,OVC,,0.00,WeatherDisplay:10.37,2013-01-23 16:35:00,
2013-01-23 10:40:00,18.0,4.9,30.31,SW,225,5.5,5.5,56,0.00,OVC,,0.00,WeatherDisplay:10.37,2013-01-23 16:40:00,
2013-01-23 10:45:00,18.1,5.4,30.30,SSW,202,6.9,6.9,57,0.00,OVC,,0.00,WeatherDisplay:10.37,2013-01-23 16:45:00,
2013-01-23 10:50:00,18.1,5.4,30.30,West,270,5.8,5.8,57,0.00,OVC,,0.00,WeatherDisplay:10.37,2013-01-23 16:50:00,
2013-01-23 10:55:00,18.1,5.8,30.30,SSW,202,6.9,6.9,58,0.00,OVC,,0.00,WeatherDisplay:10.37,2013-01-23 16:55:00,
2013-01-23 11:00:00,18.1,5.8,30.30,South,180,3.5,3.5,58,0.00,OVC,,0.00,WeatherDisplay:10.37,2013-01-23 17:00:00,
2013-01-23 11:05:00,18.1,5.8,30.28,WNW,292,4.6,4.6,58,0.00,OVC,,0.00,WeatherDisplay:10.37,2013-01-23 17:05:00,
2013-01-23 11:10:00,18.3,6.0,30.28,SSE,158,2.3,2.5,58,0.00,OVC,,0.00,WeatherDisplay:10.37,2013-01-23 17:10:00,
2013-01-23 11:15:00,18.9,6.1,30.28,WSW,248,8.1,8.1,57,0.00,OVC,,0.00,WeatherDisplay:10.37,2013-01-23 17:15:00,
2013-01-23 11:20:00,18.9,5.7,30.26,South,180,5.8,5.8,56,0.00,OVC,,0.00,WeatherDisplay:10.37,2013-01-23 17:20:00,
2013-01-23 11:25:00,18.7,5.6,30.26,SSW,202,5.2,5.2,56,0.00,OVC,,0.00,WeatherDisplay:10.37,2013-01-23 17:25:00,
2013-01-23 11:30:00,18.9,5.7,30.26,NW,315,3.5,3.9,56,0.00,OVC,,0.00,WeatherDisplay:10.37,2013-01-23 17:30:00,
2013-01-23 11:35:00,19.0,5.9,30.26,WSW,248,5.8,5.8,56,0.00,OVC,,0.00,WeatherDisplay:10.37,2013-01-23 17:35:00,
2013-01-23 11:40:00,19.6,6.4,30.26,South,180,3.5,4.0,56,0.00,OVC,,0.00,WeatherDisplay:10.37,2013-01-23 17:40:00,
2013-01-23 11:45:00,19.6,6.4,30.26,SW,225,7.4,7.4,56,0.00,OVC,,0.00,WeatherDisplay:10.37,2013-01-23 17:45:00,
2013-01-23 11:50:00,19.9,7.1,30.26,South,180,6.9,6.9,57,0.00,OVC,,0.00,WeatherDisplay:10.37,2013-01-23 17:50:00,
2013-01-23 11:55:00,19.9,7.1,30.26,West,270,6.9,6.9,57,0.00,OVC,,0.00,WeatherDisplay:10.37,2013-01-23 17:55:00,
2013-01-23 12:00:00,20.1,7.3,30.25,SSE,158,5.8,5.8,57,0.00,OVC,,0.00,WeatherDisplay:10.37,2013-01-23 18:00:00,
2013-01-23 12:05:00,20.1,7.3,30.25,South,180,6.9,6.9,57,0.00,OVC,,0.00,WeatherDisplay:10.37,2013-01-23 18:05:00,
2013-01-23 12:10:00,20.1,7.3,30.25,South,180,6.9,6.9,57,0.00,OVC,,0.00,WeatherDisplay:10.37,2013-01-23 18:10:00,
2013-01-23 12:15:00,20.3,8.2,30.25,SSE,158,5.8,5.8,59,0.00,OVC,,0.00,WeatherDisplay:10.37,2013-01-23 18:15:00,
2013-01-23 12:20:00,20.3,8.6,30.25,West,270,5.8,5.8,60,0.00,OVC,,0.00,WeatherDisplay:10.37,2013-01-23 18:20:00,
2013-01-23 12:25:00,20.3,8.6,30.23,SSW,202,6.9,6.9,60,0.00,OVC,,0.00,WeatherDisplay:10.37,2013-01-23 18:25:00,
2013-01-23 12:30:00,19.9,8.6,30.23,West,270,6.9,6.9,61,0.00,OVC,,0.00,WeatherDisplay:10.37,2013-01-23 18:30:00,
2013-01-23 12:35:00,20.3,9.0,30.23,WSW,248,6.9,6.9,61,0.00,OVC,,0.00,WeatherDisplay:10.37,2013-01-23 18:35:00,
2013-01-23 12:40:00,20.3,9.3,30.22,SW,225,5.3,5.3,62,0.00,OVC,,0.00,WeatherDisplay:10.37,2013-01-23 18:40:00,
2013-01-23 12:45:00,20.3,9.3,30.22,South,180,5.8,5.8,62,0.00,OVC,,0.00,WeatherDisplay:10.37,2013-01-23 18:45:00,
2013-01-23 12:50:00,20.3,9.3,30.22,South,180,2.3,3.6,62,0.00,OVC,,0.00,WeatherDisplay:10.37,2013-01-23 18:50:00,
2013-01-23 12:55:00,20.3,9.3,30.22,South,180,9.2,9.2,62,0.00,OVC,,0.00,WeatherDisplay:10.37,2013-01-23 18:55:00,
2013-01-23 13:00:00,20.1,9.2,30.22,WNW,292,3.5,4.6,62,0.00,OVC,,0.00,WeatherDisplay:10.37,2013-01-23 19:00:00,
2013-01-23 13:05:00,20.3,9.3,30.21,SW,225,4.6,4.6,62,0.00,OVC,,0.00,WeatherDisplay:10.37,2013-01-23 19:05:00,
2013-01-23 13:10:00,20.3,9.3,30.21,WSW,248,2.3,3.0,62,0.00,OVC,,0.00,WeatherDisplay:10.37,2013-01-23 19:10:00,
2013-01-23 13:15:00,20.7,9.7,30.21,SSW,202,5.8,5.8,62,0.00,OVC,,0.00,WeatherDisplay:10.37,2013-01-23 19:15:00,
2013-01-23 13:20:00,20.7,9.7,30.21,NW,315,4.6,4.6,62,0.00,OVC,,0.00,WeatherDisplay:10.37,2013-01-23 19:20:00,
2013-01-23 13:25:00,20.5,9.5,30.20,SW,225,5.8,5.8,62,0.00,OVC,,0.00,WeatherDisplay:10.37,2013-01-23 19:25:00,
2013-01-23 13:31:00,20.7,9.7,30.20,NW,315,4.6,4.6,62,0.00,OVC,,0.00,WeatherDisplay:10.37,2013-01-23 19:31:00,
2013-01-23 13:36:00,21.0,10.0,30.20,West,270,5.8,5.8,62,0.00,OVC,,0.00,WeatherDisplay:10.37,2013-01-23 19:36:00,
2013-01-23 13:41:00,21.0,10.0,30.20,SW,225,5.8,5.8,62,0.00,OVC,,0.00,WeatherDisplay:10.37,2013-01-23 19:41:00,
2013-01-23 13:46:00,21.0,10.0,30.19,South,180,6.9,6.9,62,0.00,OVC,,0.00,WeatherDisplay:10.37,2013-01-23 19:46:00,
2013-01-23 13:51:00,21.2,10.2,30.19,SW,225,5.1,5.1,62,0.00,OVC,,0.00,WeatherDisplay:10.37,2013-01-23 19:51:00,
2013-01-23 13:56:00,21.2,10.2,30.19,WNW,292,5.8,5.8,62,0.00,OVC,,0.00,WeatherDisplay:10.37,2013-01-23 19:56:00,
2013-01-23 14:01:00,21.2,10.2,30.19,West,270,3.5,3.6,62,0.00,OVC,,0.00,WeatherDisplay:10.37,2013-01-23 20:01:00,
2013-01-23 14:06:00,21.2,10.2,30.18,SW,225,4.8,4.8,62,0.00,OVC,,0.00,WeatherDisplay:10.37,2013-01-23 20:06:00,
2013-01-23 14:11:00,21.7,10.7,30.18,ESE,112,2.3,3.5,62,0.00,OVC,,0.00,WeatherDisplay:10.37,2013-01-23 20:11:00,
2013-01-23 14:16:00,21.7,10.7,30.18,SW,225,4.6,4.6,62,0.00,OVC,,0.00,WeatherDisplay:10.37,2013-01-23 20:16:00,
2013-01-23 14:21:00,21.7,10.7,30.17,WSW,248,4.6,4.6,62,0.00,OVC,,0.00,WeatherDisplay:10.37,2013-01-23 20:21:00,
2013-01-23 14:26:00,21.9,10.9,30.17,SW,225,1.2,3.0,62,0.00,OVC,,0.00,WeatherDisplay:10.37,2013-01-23 20:26:00,
2013-01-23 14:31:00,22.1,11.1,30.17,South,180,3.5,3.5,62,0.00,OVC,,0.00,WeatherDisplay:10.37,2013-01-23 20:31:00,
2013-01-23 14:36:00,22.5,11.4,30.17,SW,225,5.8,5.8,62,0.00,OVC,,0.00,WeatherDisplay:10.37,2013-01-23 20:36:00,
2013-01-23 14:41:00,22.5,11.4,30.17,South,180,2.3,2.8,62,0.00,OVC,,0.00,WeatherDisplay:10.37,2013-01-23 20:41:00,
2013-01-23 14:46:00,22.6,11.6,30.17,WNW,292,2.6,2.6,62,0.00,OVC,,0.00,WeatherDisplay:10.37,2013-01-23 20:46:00,
2013-01-23 14:51:00,22.8,11.7,30.17,ESE,112,6.9,6.9,62,0.00,OVC,,0.00,WeatherDisplay:10.37,2013-01-23 20:51:00,
2013-01-23 14:56:00,22.8,11.7,30.17,SSW,202,8.1,8.1,62,0.00,OVC,,0.00,WeatherDisplay:10.37,2013-01-23 20:56:00,
2013-01-23 15:01:00,22.8,11.4,30.17,WSW,248,8.2,8.2,61,0.00,OVC,,0.00,WeatherDisplay:10.37,2013-01-23 21:01:00,
2013-01-23 15:06:00,22.6,11.2,30.17,WSW,248,2.5,3.5,61,0.00,OVC,,0.00,WeatherDisplay:10.37,2013-01-23 21:06:00,
2013-01-23 15:11:00,22.8,11.4,30.17,WSW,248,4.6,4.6,61,0.00,OVC,,0.00,WeatherDisplay:10.37,2013-01-23 21:11:00,
2013-01-23 15:16:00,22.8,11.4,30.17,SSW,202,5.8,5.8,61,0.00,OVC,,0.00,WeatherDisplay:10.37,2013-01-23 21:16:00,
2013-01-23 15:21:00,22.8,11.4,30.16,SW,225,3.5,3.5,61,0.00,OVC,,0.00,WeatherDisplay:10.37,2013-01-23 21:21:00,
2013-01-23 15:26:00,23.2,11.7,30.16,South,180,3.9,3.9,61,0.00,OVC,,0.00,WeatherDisplay:10.37,2013-01-23 21:26:00,
2013-01-23 15:31:00,23.2,11.7,30.16,West,270,2.8,2.8,61,0.00,OVC,,0.00,WeatherDisplay:10.37,2013-01-23 21:31:00,
2013-01-23 15:36:00,23.2,11.7,30.16,WSW,248,3.9,3.9,61,0.00,OVC,,0.00,WeatherDisplay:10.37,2013-01-23 21:36:00,
2013-01-23 15:41:00,23.2,11.7,30.12,South,180,4.6,4.6,61,0.00,OVC,,0.00,WeatherDisplay:10.37,2013-01-23 21:41:00,
2013-01-23 15:46:00,22.8,11.4,30.12,NW,315,6.9,6.9,61,0.00,OVC,,0.00,WeatherDisplay:10.37,2013-01-23 21:46:00,
2013-01-23 15:51:00,23.2,12.1,30.12,WSW,248,3.5,3.5,62,0.00,OVC,,0.00,WeatherDisplay:10.37,2013-01-23 21:51:00,
2013-01-23 15:56:00,22.8,11.7,30.12,West,270,3.6,3.6,62,0.00,OVC,,0.00,WeatherDisplay:10.37,2013-01-23 21:56:00,
2013-01-23 16:01:00,22.8,11.7,30.11,SE,135,2.3,2.9,62,0.00,OVC,,0.00,WeatherDisplay:10.37,2013-01-23 22:01:00,
2013-01-23 16:06:00,22.8,11.7,30.11,WNW,292,5.8,5.8,62,0.00,OVC,,0.00,WeatherDisplay:10.37,2013-01-23 22:06:00,
2013-01-23 16:11:00,22.6,12.3,30.11,WSW,248,3.5,3.5,64,0.00,OVC,,0.00,WeatherDisplay:10.37,2013-01-23 22:11:00,
2013-01-23 16:16:00,22.8,12.5,30.11,SW,225,4.6,4.6,64,0.00,OVC,,0.00,WeatherDisplay:10.37,2013-01-23 22:16:00,
2013-01-23 16:21:00,22.5,12.5,30.08,West,270,8.1,8.1,65,0.00,OVC,,0.00,WeatherDisplay:10.37,2013-01-23 22:21:00,
2013-01-23 16:26:00,22.5,12.8,30.08,WSW,248,11.5,11.5,66,0.00,OVC,,0.00,WeatherDisplay:10.37,2013-01-23 22:26:00,
2013-01-23 16:31:00,22.5,13.2,30.08,SW,225,6.9,6.9,67,0.00,OVC,,0.00,WeatherDisplay:10.37,2013-01-23 22:31:00,
2013-01-23 16:36:00,22.1,12.8,30.08,SSW,202,5.8,5.8,67,0.00,OVC,,0.00,WeatherDisplay:10.37,2013-01-23 22:36:00,
2013-01-23 16:41:00,21.9,13.0,30.09,SSW,202,8.1,8.1,68,0.00,OVC,,0.00,WeatherDisplay:10.37,2013-01-23 22:41:00,
2013-01-23 16:46:00,21.7,12.8,30.09,SSW,202,2.3,3.7,68,0.00,OVC,,0.00,WeatherDisplay:10.37,2013-01-23 22:46:00,
2013-01-23 16:51:00,21.7,13.1,30.09,West,270,8.2,8.2,69,0.00,OVC,,0.00,WeatherDisplay:10.37,2013-01-23 22:51:00,
2013-01-23 16:56:00,21.7,13.5,30.09,SW,225,3.5,3.5,70,0.00,OVC,,0.00,WeatherDisplay:10.37,2013-01-23 22:56:00,
2013-01-23 17:01:00,21.4,13.1,30.09,West,270,5.8,5.8,70,0.00,OVC,,0.00,WeatherDisplay:10.37,2013-01-23 23:01:00,
2013-01-23 17:06:00,21.4,13.1,30.09,South,180,3.5,3.5,70,0.00,OVC,,0.00,WeatherDisplay:10.37,2013-01-23 23:06:00,
2013-01-23 17:11:00,21.4,13.1,30.09,NW,315,6.2,6.2,70,0.00,OVC,,0.00,WeatherDisplay:10.37,2013-01-23 23:11:00,
2013-01-23 17:16:00,21.0,12.8,30.09,West,270,2.6,2.8,70,0.00,OVC,,0.00,WeatherDisplay:10.37,2013-01-23 23:16:00,
2013-01-23 17:21:00,21.0,12.8,30.10,South,180,3.5,3.5,70,0.00,OVC,,0.00,WeatherDisplay:10.37,2013-01-23 23:21:00,
2013-01-23 17:26:00,21.0,12.8,30.10,SSE,158,1.6,2.5,70,0.00,OVC,,0.00,WeatherDisplay:10.37,2013-01-23 23:26:00,
2013-01-23 17:31:00,21.0,12.8,30.10,SW,225,2.4,2.6,70,0.00,OVC,,0.00,WeatherDisplay:10.37,2013-01-23 23:31:00,
2013-01-23 17:36:00,21.0,12.8,30.10,WNW,292,2.6,2.6,70,0.00,OVC,,0.00,WeatherDisplay:10.37,2013-01-23 23:36:00,
2013-01-23 17:41:00,21.0,12.8,30.09,South,180,3.5,3.5,70,0.00,OVC,,0.00,WeatherDisplay:10.37,2013-01-23 23:41:00,
2013-01-23 17:46:00,20.8,12.6,30.09,ESE,112,4.6,4.6,70,0.00,OVC,,0.00,WeatherDisplay:10.37,2013-01-23 23:46:00,
2013-01-23 17:51:00,21.0,12.8,30.09,WSW,248,4.6,4.6,70,0.00,OVC,,0.00,WeatherDisplay:10.37,2013-01-23 23:51:00,
2013-01-23 17:56:00,21.0,12.8,30.09,WSW,248,2.6,2.6,70,0.00,OVC,,0.00,WeatherDisplay:10.37,2013-01-23 23:56:00,
2013-01-23 18:01:00,21.0,12.4,30.09,WSW,248,3.5,3.5,69,0.00,BKN,,0.00,WeatherDisplay:10.37,2013-01-24 00:01:00,
2013-01-23 18:06:00,21.0,12.4,30.09,WSW,248,2.3,2.3,69,0.00,BKN,,0.00,WeatherDisplay:10.37,2013-01-24 00:06:00,
2013-01-23 18:11:00,21.0,12.4,30.09,NW,315,4.6,4.6,69,0.00,BKN,,0.00,WeatherDisplay:10.37,2013-01-24 00:11:00,
2013-01-23 18:16:00,21.0,12.1,30.09,WNW,292,6.9,6.9,68,0.00,BKN,,0.00,WeatherDisplay:10.37,2013-01-24 00:16:00,
2013-01-23 18:21:00,21.2,12.3,30.11,West,270,5.8,5.8,68,0.00,BKN,,0.00,WeatherDisplay:10.37,2013-01-24 00:21:00,
2013-01-23 18:26:00,21.2,12.3,30.11,WNW,292,3.5,3.6,68,0.00,BKN,,0.00,WeatherDisplay:10.37,2013-01-24 00:26:00,
2013-01-23 18:31:00,21.4,12.1,30.11,WNW,292,3.5,3.6,67,0.00,BKN,,0.00,WeatherDisplay:10.37,2013-01-24 00:31:00,
2013-01-23 18:36:00,21.4,12.1,30.11,WSW,248,11.5,11.5,67,0.00,BKN,,0.00,WeatherDisplay:10.37,2013-01-24 00:36:00,
2013-01-23 18:41:00,21.7,12.5,30.11,WNW,292,6.9,6.9,67,0.00,BKN,,0.00,WeatherDisplay:10.37,2013-01-24 00:41:00,
2013-01-23 18:46:00,21.6,11.9,30.11,West,270,4.9,4.9,66,0.00,BKN,,0.00,WeatherDisplay:10.37,2013-01-24 00:46:00,
2013-01-23 18:51:00,21.7,12.1,30.11,WSW,248,9.2,9.2,66,0.00,BKN,,0.00,WeatherDisplay:10.37,2013-01-24 00:51:00,
2013-01-23 18:56:00,21.9,12.3,30.11,WNW,292,12.7,12.7,66,0.00,BKN,,0.00,WeatherDisplay:10.37,2013-01-24 00:56:00,
2013-01-23 19:01:00,21.9,12.3,30.13,NW,315,9.5,9.5,66,0.00,OVC,,0.00,WeatherDisplay:10.37,2013-01-24 01:01:00,
2013-01-23 19:06:00,22.1,12.1,30.13,NNW,338,9.2,9.2,65,0.00,OVC,,0.00,WeatherDisplay:10.37,2013-01-24 01:06:00,
2013-01-23 19:11:00,22.1,11.8,30.13,NNE,22,10.4,10.4,64,0.00,OVC,,0.00,WeatherDisplay:10.37,2013-01-24 01:11:00,
2013-01-23 19:16:00,22.1,11.8,30.13,NW,315,5.8,5.8,64,0.00,OVC,,0.00,WeatherDisplay:10.37,2013-01-24 01:16:00,
2013-01-23 19:21:00,21.9,11.6,30.12,West,270,11.5,11.5,64,0.00,OVC,,0.00,WeatherDisplay:10.37,2013-01-24 01:21:00,
2013-01-23 19:26:00,21.9,11.6,30.12,NW,315,9.0,9.0,64,0.00,OVC,,0.00,WeatherDisplay:10.37,2013-01-24 01:26:00,
2013-01-23 19:31:00,22.1,11.8,30.12,NNW,338,9.2,9.2,64,0.00,OVC,,0.00,WeatherDisplay:10.37,2013-01-24 01:31:00,
2013-01-23 19:36:00,22.1,11.8,30.12,NW,315,13.0,13.0,64,0.00,OVC,,0.00,WeatherDisplay:10.37,2013-01-24 01:36:00,
2013-01-23 19:41:00,21.7,11.4,30.12,NW,315,10.4,10.4,64,0.00,OVC,,0.00,WeatherDisplay:10.37,2013-01-24 01:41:00,
2013-01-23 19:46:00,21.9,11.9,30.12,NNW,338,8.1,8.1,65,0.00,OVC,,0.00,WeatherDisplay:10.37,2013-01-24 01:46:00,
2013-01-23 19:51:00,21.9,11.9,30.12,WNW,292,9.2,9.2,65,0.00,OVC,,0.00,WeatherDisplay:10.37,2013-01-24 01:51:00,
2013-01-23 19:56:00,21.9,11.9,30.12,WNW,292,6.9,6.9,65,0.00,OVC,,0.00,WeatherDisplay:10.37,2013-01-24 01:56:00,
2013-01-23 20:01:00,22.1,12.5,30.13,NNW,338,11.5,11.5,66,0.00,BKN,,0.00,WeatherDisplay:10.37,2013-01-24 02:01:00,
2013-01-23 20:06:00,22.1,12.5,30.13,NNW,338,14.5,14.5,66,0.00,BKN,,0.00,WeatherDisplay:10.37,2013-01-24 02:06:00,
2013-01-23 20:11:00,22.1,12.5,30.13,NW,315,10.4,10.4,66,0.00,BKN,,0.00,WeatherDisplay:10.37,2013-01-24 02:11:00,
2013-01-23 20:16:00,22.1,12.1,30.13,NW,315,9.2,9.2,65,0.00,BKN,,0.00,WeatherDisplay:10.37,2013-01-24 02:16:00,
2013-01-23 20:21:00,22.5,12.5,30.13,WNW,292,8.1,8.1,65,0.00,BKN,,0.00,WeatherDisplay:10.37,2013-01-24 02:21:00,
2013-01-23 20:26:00,22.1,11.8,30.13,NW,315,8.1,8.1,64,0.00,BKN,,0.00,WeatherDisplay:10.37,2013-01-24 02:26:00,
2013-01-23 20:31:00,22.1,11.4,30.13,NW,315,17.3,17.3,63,0.00,BKN,,0.00,WeatherDisplay:10.37,2013-01-24 02:31:00,
2013-01-23 20:36:00,22.1,11.1,30.13,NW,315,17.6,17.6,62,0.00,BKN,,0.00,WeatherDisplay:10.37,2013-01-24 02:36:00,
2013-01-23 20:41:00,22.1,11.1,30.13,North,0,16.1,16.1,62,0.00,BKN,,0.00,WeatherDisplay:10.37,2013-01-24 02:41:00,
2013-01-23 20:46:00,22.1,11.1,30.13,NNW,338,12.7,12.7,62,0.00,BKN,,0.00,WeatherDisplay:10.37,2013-01-24 02:46:00,
2013-01-23 20:51:00,22.1,11.1,30.13,NW,315,12.7,12.7,62,0.00,BKN,,0.00,WeatherDisplay:10.37,2013-01-24 02:51:00,
2013-01-23 20:56:00,21.9,10.9,30.13,NNW,338,9.2,9.2,62,0.00,BKN,,0.00,WeatherDisplay:10.37,2013-01-24 02:56:00,
2013-01-23 21:01:00,22.1,11.4,30.14,WSW,248,10.4,10.4,63,0.00,SCT,,0.00,WeatherDisplay:10.37,2013-01-24 03:01:00,
2013-01-23 21:06:00,22.1,11.1,30.14,NNW,338,11.6,11.6,62,0.00,SCT,,0.00,WeatherDisplay:10.37,2013-01-24 03:06:00,
2013-01-23 21:11:00,22.1,11.1,30.14,NW,315,18.4,18.4,62,0.00,SCT,,0.00,WeatherDisplay:10.37,2013-01-24 03:11:00,
2013-01-23 21:16:00,22.1,11.1,30.14,North,0,16.1,16.1,62,0.00,SCT,,0.00,WeatherDisplay:10.37,2013-01-24 03:16:00,
2013-01-23 21:21:00,22.1,11.4,30.14,NW,315,11.5,11.5,63,0.00,SCT,,0.00,WeatherDisplay:10.37,2013-01-24 03:21:00,
2013-01-23 21:26:00,22.1,11.8,30.14,NW,315,18.5,18.5,64,0.00,SCT,,0.00,WeatherDisplay:10.37,2013-01-24 03:26:00,
2013-01-23 21:31:00,22.1,12.1,30.14,NNE,22,11.5,11.5,65,0.00,SCT,,0.00,WeatherDisplay:10.37,2013-01-24 03:31:00,
2013-01-23 21:36:00,21.7,14.4,30.14,North,0,13.8,13.8,73,0.00,SCT,,0.00,WeatherDisplay:10.37,2013-01-24 03:36:00,
2013-01-23 21:41:00,21.2,14.5,30.16,NW,315,11.5,11.5,75,0.00,SCT,,0.00,WeatherDisplay:10.37,2013-01-24 03:41:00,
2013-01-23 21:46:00,21.4,14.7,30.16,NW,315,11.5,11.5,75,0.00,SCT,,0.00,WeatherDisplay:10.37,2013-01-24 03:46:00,
2013-01-23 21:51:00,21.4,14.7,30.16,West,270,12.7,12.7,75,0.00,SCT,,0.00,WeatherDisplay:10.37,2013-01-24 03:51:00,
2013-01-23 21:56:00,21.0,14.6,30.16,WNW,292,11.5,11.5,76,0.00,SCT,,0.00,WeatherDisplay:10.37,2013-01-24 03:56:00,
2013-01-23 22:01:00,20.8,13.5,30.17,NW,315,16.1,16.1,73,0.00,BKN,,0.00,WeatherDisplay:10.37,2013-01-24 04:01:00,
2013-01-23 22:06:00,21.0,12.4,30.17,NNW,338,9.2,9.2,69,0.00,BKN,,0.00,WeatherDisplay:10.37,2013-01-24 04:06:00,
2013-01-23 22:11:00,21.2,12.3,30.17,NW,315,14.3,14.3,68,0.00,BKN,,0.00,WeatherDisplay:10.37,2013-01-24 04:11:00,
2013-01-23 22:16:00,21.4,12.1,30.17,WNW,292,11.5,11.5,67,0.00,BKN,,0.00,WeatherDisplay:10.37,2013-01-24 04:16:00,
2013-01-23 22:21:00,21.4,11.4,30.18,NNW,338,11.5,11.5,65,0.00,BKN,,0.00,WeatherDisplay:10.37,2013-01-24 04:21:00,
2013-01-23 22:26:00,21.4,10.7,30.18,NW,315,15.0,15.0,63,0.00,BKN,,0.00,WeatherDisplay:10.37,2013-01-24 04:26:00,
2013-01-23 22:31:00,21.4,11.1,30.18,NNW,338,13.8,13.8,64,0.00,BKN,,0.00,WeatherDisplay:10.37,2013-01-24 04:31:00,
2013-01-23 22:36:00,21.4,11.1,30.18,NW,315,8.1,10.0,64,0.00,BKN,,0.00,WeatherDisplay:10.37,2013-01-24 04:36:00,
2013-01-23 22:41:00,21.4,11.1,30.19,NW,315,8.1,8.7,64,0.00,BKN,,0.00,WeatherDisplay:10.37,2013-01-24 04:41:00,
2013-01-23 22:46:00,21.2,10.9,30.19,NW,315,12.7,12.7,64,0.00,BKN,,0.00,WeatherDisplay:10.37,2013-01-24 04:46:00,
2013-01-23 22:51:00,21.2,11.3,30.19,NW,315,12.7,12.7,65,0.00,BKN,,0.00,WeatherDisplay:10.37,2013-01-24 04:51:00,
2013-01-23 22:56:00,21.0,10.7,30.19,NW,315,11.8,11.8,64,0.00,BKN,,0.00,WeatherDisplay:10.37,2013-01-24 04:56:00,
2013-01-23 23:00:00,20.8,9.9,30.19,NW,321,9.0,14.0,62,0.00,BKN,,0.00,WeatherDisplay:10.37,2013-01-24 05:00:00,
2013-01-23 23:01:00,21.0,9.3,30.21,NNW,338,13.8,13.8,60,0.00,BKN,,0.00,WeatherDisplay:10.37,2013-01-24 05:01:00,
2013-01-23 23:06:00,20.7,9.0,30.21,NW,315,13.8,13.8,60,0.00,BKN,,0.00,WeatherDisplay:10.37,2013-01-24 05:06:00,
2013-01-23 23:11:00,20.7,9.0,30.21,NW,315,5.8,7.2,60,0.00,BKN,,0.00,WeatherDisplay:10.37,2013-01-24 05:11:00,
2013-01-23 23:16:00,20.7,9.0,30.21,NW,315,5.8,7.6,60,0.00,BKN,,0.00,WeatherDisplay:10.37,2013-01-24 05:16:00,
2013-01-23 23:21:00,21.0,8.9,30.22,NW,315,13.8,13.8,59,0.00,BKN,,0.00,WeatherDisplay:10.37,2013-01-24 05:21:00,
2013-01-23 23:26:00,20.7,9.0,30.22,WNW,292,10.4,10.4,60,0.00,BKN,,0.00,WeatherDisplay:10.37,2013-01-24 05:26:00,
2013-01-23 23:31:00,20.7,9.7,30.22,North,0,13.8,13.8,62,0.00,BKN,,0.00,WeatherDisplay:10.37,2013-01-24 05:31:00,
2013-01-23 23:36:00,20.1,12.2,30.22,NW,315,8.1,8.1,71,0.00,BKN,,0.00,WeatherDisplay:10.37,2013-01-24 05:36:00,
2013-01-23 23:41:00,19.6,12.6,30.24,North,0,11.5,11.5,74,0.00,BKN,,0.00,WeatherDisplay:10.37,2013-01-24 05:41:00,
2013-01-23 23:47:00,19.6,12.6,30.24,North,0,4.6,5.6,74,0.00,BKN,,0.00,WeatherDisplay:10.37,2013-01-24 05:47:00,
2013-01-23 23:52:00,19.6,13.2,30.24,NNE,22,11.5,11.5,76,0.00,BKN,,0.00,WeatherDisplay:10.37,2013-01-24 05:52:00,
2013-01-23 23:57:00,19.6,13.8,30.24,North,0,6.9,6.9,78,0.00,BKN,,0.00,WeatherDisplay:10.37,2013-01-24 05:57:00,